createdAt,value
2019-03-19T00:01:17.842Z,1.14
2019-03-19T00:04:07.893Z,1.06
2019-03-19T00:06:57.540Z,0.99
2019-03-19T00:09:47.504Z,0.94
2019-03-19T00:12:37.333Z,0.92
2019-03-19T00:15:08.455Z,0.85
2019-03-19T00:17:58.046Z,0.88
2019-03-19T00:20:28.832Z,0.92
2019-03-19T00:23:02.038Z,0.88
2019-03-19T00:25:53.209Z,0.88
2019-03-19T00:28:43.035Z,0.96
2019-03-19T00:31:33.344Z,0.92
2019-03-19T00:34:04.172Z,0.93
2019-03-19T00:36:53.750Z,0.84
2019-03-19T00:39:43.472Z,0.86
2019-03-19T00:42:33.470Z,0.91
2019-03-19T00:48:32.797Z,0.88
2019-03-19T00:51:03.679Z,0.86
2019-03-19T00:53:54.430Z,0.80
2019-03-19T00:56:44.525Z,0.74
2019-03-19T00:59:15.123Z,0.90
2019-03-19T01:02:04.874Z,0.83
2019-03-19T01:04:54.749Z,0.82
2019-03-19T01:07:44.752Z,0.89
2019-03-19T01:10:17.368Z,0.90
2019-03-19T01:12:48.102Z,0.89
2019-03-19T01:15:19.159Z,0.90
2019-03-19T01:17:50.306Z,0.92
2019-03-19T01:20:40.232Z,0.97
2019-03-19T01:23:30.173Z,1.11
2019-03-19T01:26:20.073Z,1.10
2019-03-19T01:29:09.627Z,1.17
2019-03-19T01:31:59.655Z,0.39
2019-03-19T01:34:49.208Z,1.16
2019-03-19T01:37:39.100Z,0.93
2019-03-19T01:40:28.587Z,1.08
2019-03-19T01:42:59.094Z,1.14
2019-03-19T01:45:48.879Z,1.08
2019-03-19T01:48:38.913Z,1.06
2019-03-19T01:51:28.702Z,1.06
2019-03-19T01:54:18.459Z,0.99
2019-03-19T01:56:48.975Z,0.37
2019-03-19T01:59:19.528Z,1.05
2019-03-19T02:01:50.021Z,1.08
2019-03-19T02:04:40.682Z,1.10
2019-03-19T02:07:12.454Z,1.11
2019-03-19T02:10:02.539Z,1.13
2019-03-19T02:12:33.051Z,1.18
2019-03-19T02:15:03.707Z,1.24
2019-03-19T02:17:45.315Z,1.33
2019-03-19T02:20:16.378Z,1.33
2019-03-19T02:22:47.015Z,1.45
2019-03-19T02:25:17.538Z,1.33
2019-03-19T02:28:08.614Z,1.40
2019-03-19T02:30:39.093Z,1.33
2019-03-19T02:33:30.053Z,1.32
2019-03-19T02:36:21.443Z,1.36
2019-03-19T02:38:52.072Z,1.46
2019-03-19T02:41:41.794Z,1.49
2019-03-19T02:44:31.680Z,1.25
2019-03-19T02:47:21.127Z,1.31
2019-03-19T02:49:51.925Z,1.34
2019-03-19T02:52:22.795Z,1.35
2019-03-19T02:55:15.126Z,1.26
2019-03-19T02:58:05.032Z,1.27
2019-03-19T03:00:35.920Z,1.35
2019-03-19T03:03:25.761Z,1.40
2019-03-19T03:06:15.594Z,1.43
2019-03-19T03:08:57.626Z,1.25
2019-03-19T03:11:28.481Z,1.24
2019-03-19T03:13:58.955Z,1.28
2019-03-19T03:16:40.656Z,1.32
2019-03-19T03:19:11.551Z,1.37
2019-03-19T03:22:02.028Z,1.32
2019-03-19T03:25:11.743Z,1.31
2019-03-19T03:27:42.479Z,1.27
2019-03-19T03:30:13.838Z,1.24
2019-03-19T03:32:44.649Z,1.22
2019-03-19T03:35:15.388Z,1.34
2019-03-19T03:38:05.067Z,1.36
2019-03-19T03:40:35.681Z,1.30
2019-03-19T03:43:17.345Z,1.30
2019-03-19T03:45:59.016Z,1.36
2019-03-19T03:48:29.542Z,1.36
2019-03-19T03:51:00.228Z,1.35
2019-03-19T03:53:49.974Z,1.29
2019-03-19T03:56:20.471Z,1.33
2019-03-19T03:59:10.073Z,1.30
2019-03-19T04:02:00.037Z,1.32
2019-03-19T04:04:49.743Z,1.40
2019-03-19T04:07:39.681Z,1.49
2019-03-19T04:10:29.249Z,1.56
2019-03-19T04:13:18.836Z,1.60
2019-03-19T04:16:08.377Z,1.68
2019-03-19T04:18:58.160Z,1.76
2019-03-19T04:21:47.630Z,1.75
2019-03-19T04:24:37.630Z,1.78
2019-03-19T04:27:27.246Z,1.82
2019-03-19T04:30:17.040Z,1.86
2019-03-19T04:33:06.794Z,1.87
2019-03-19T04:35:56.620Z,1.94
2019-03-19T04:38:46.849Z,1.81
2019-03-19T04:41:29.042Z,1.80
2019-03-19T04:44:01.166Z,1.05
2019-03-19T04:46:51.115Z,1.92
2019-03-19T04:49:41.627Z,2.03
2019-03-19T04:52:30.982Z,1.97
2019-03-19T04:55:23.476Z,1.90
2019-03-19T04:58:16.451Z,1.89
2019-03-19T05:01:06.280Z,1.98
2019-03-19T05:03:58.521Z,2.00
2019-03-19T05:06:48.077Z,1.97
2019-03-19T05:09:37.578Z,2.01
2019-03-19T05:15:19.934Z,1.96
2019-03-19T05:17:50.683Z,1.96
2019-03-19T05:20:22.259Z,2.04
2019-03-19T05:22:52.786Z,2.13
2019-03-19T05:25:42.543Z,2.09
2019-03-19T05:28:32.244Z,2.07
2019-03-19T05:31:22.834Z,2.03
2019-03-19T05:34:12.635Z,2.03
2019-03-19T05:37:02.312Z,2.11
2019-03-19T05:39:52.789Z,2.20
2019-03-19T05:42:35.410Z,2.15
2019-03-19T05:45:17.190Z,2.08
2019-03-19T05:47:48.292Z,2.06
2019-03-19T05:50:19.781Z,2.14
2019-03-19T05:52:53.566Z,2.08
2019-03-19T05:55:44.151Z,2.05
2019-03-19T05:58:36.031Z,2.10
2019-03-19T06:04:18.577Z,2.11
2019-03-19T06:07:08.008Z,2.14
2019-03-19T06:09:40.189Z,2.25
2019-03-19T06:12:30.141Z,2.25
2019-03-19T06:15:19.876Z,2.21
2019-03-19T06:17:50.395Z,2.34
2019-03-19T06:20:23.525Z,2.26
2019-03-19T06:22:54.237Z,2.36
2019-03-19T06:25:24.829Z,2.40
2019-03-19T06:28:14.426Z,2.31
2019-03-19T06:30:48.836Z,2.22
2019-03-19T06:33:39.111Z,2.23
2019-03-19T06:36:09.668Z,2.17
2019-03-19T06:38:59.183Z,2.21
2019-03-19T06:41:29.817Z,2.16
2019-03-19T06:44:14.559Z,2.18
2019-03-19T06:46:45.116Z,2.23
2019-03-19T06:49:35.226Z,2.26
2019-03-19T06:52:34.406Z,2.32
2019-03-19T06:55:24.366Z,2.30
2019-03-19T06:58:16.437Z,2.28
2019-03-19T07:01:05.997Z,2.40
2019-03-19T07:03:55.643Z,2.49
2019-03-19T07:06:45.354Z,2.67
2019-03-19T07:12:21.363Z,3.09
2019-03-19T07:15:12.476Z,3.19
2019-03-19T07:17:43.080Z,3.27
2019-03-19T07:20:32.634Z,3.40
2019-03-19T07:23:22.191Z,3.59
2019-03-19T07:25:53.068Z,3.74
2019-03-19T07:28:23.555Z,3.86
2019-03-19T07:30:54.984Z,3.96
2019-03-19T07:33:44.530Z,4.02
2019-03-19T07:36:34.139Z,4.17
2019-03-19T07:39:06.982Z,4.96
2019-03-19T07:41:56.427Z,5.36
2019-03-19T07:44:27.198Z,6.18
2019-03-19T07:47:16.755Z,7.30
2019-03-19T07:50:07.101Z,8.33
2019-03-19T07:52:57.082Z,9.08
2019-03-19T07:55:53.310Z,9.70
2019-03-19T07:58:35.890Z,10.62
2019-03-19T08:00:57.068Z,10.92
2019-03-19T08:03:46.549Z,11.47
2019-03-19T08:06:17.300Z,11.56
2019-03-19T08:09:07.774Z,11.74
2019-03-19T08:11:38.717Z,12.32
2019-03-19T08:14:10.526Z,12.50
2019-03-19T08:17:00.253Z,13.04
2019-03-19T08:19:31.920Z,13.18
2019-03-19T08:22:21.570Z,13.48
2019-03-19T08:24:53.612Z,13.89
2019-03-19T08:27:24.889Z,13.91
2019-03-19T08:29:55.471Z,13.44
2019-03-19T08:32:25.963Z,13.23
2019-03-19T08:35:15.586Z,13.04
2019-03-19T08:37:57.909Z,13.41
2019-03-19T08:40:28.656Z,13.44
2019-03-19T08:42:59.647Z,14.47
2019-03-19T08:45:49.541Z,15.23
2019-03-19T08:48:20.674Z,15.60
2019-03-19T08:50:52.101Z,15.74
2019-03-19T08:53:42.125Z,16.04
2019-03-19T08:56:13.422Z,15.83
2019-03-19T08:58:44.517Z,16.43
2019-03-19T09:01:33.944Z,17.12
2019-03-19T09:04:04.687Z,16.01
2019-03-19T09:06:36.537Z,15.16
2019-03-19T09:09:27.274Z,13.43
2019-03-19T09:12:16.835Z,12.40
2019-03-19T09:14:47.750Z,10.88
2019-03-19T09:17:19.644Z,10.89
2019-03-19T09:19:50.879Z,11.02
2019-03-19T09:22:22.867Z,12.78
2019-03-19T09:24:54.561Z,13.95
2019-03-19T09:27:44.404Z,13.90
2019-03-19T09:30:33.950Z,13.98
2019-03-19T09:33:23.553Z,13.47
2019-03-19T09:36:13.230Z,12.43
2019-03-19T09:39:02.928Z,12.70
2019-03-19T09:41:52.410Z,13.36
2019-03-19T09:47:12.636Z,13.52
2019-03-19T09:49:43.240Z,14.81
2019-03-19T09:52:13.799Z,15.58
2019-03-19T09:54:46.598Z,14.82
2019-03-19T09:57:36.780Z,12.87
2019-03-19T10:00:26.852Z,11.59
2019-03-19T10:02:57.741Z,10.10
2019-03-19T10:05:28.320Z,9.39
2019-03-19T10:07:58.804Z,9.05
2019-03-19T10:10:33.465Z,8.85
2019-03-19T10:13:23.566Z,8.79
2019-03-19T10:15:54.376Z,8.81
2019-03-19T10:18:26.530Z,8.79
2019-03-19T10:20:57.199Z,8.91
2019-03-19T10:23:27.937Z,8.96
2019-03-19T10:25:58.799Z,9.25
2019-03-19T10:28:29.341Z,9.42
2019-03-19T10:31:18.848Z,9.60
2019-03-19T10:34:09.080Z,9.61
2019-03-19T10:36:59.387Z,10.23
2019-03-19T10:39:30.744Z,10.97
2019-03-19T10:42:21.474Z,11.37
2019-03-19T10:44:53.121Z,11.13
2019-03-19T10:47:43.644Z,11.07
2019-03-19T10:50:19.275Z,10.98
2019-03-19T10:53:08.767Z,11.02
2019-03-19T10:55:39.411Z,11.19
2019-03-19T10:58:11.204Z,11.15
2019-03-19T11:00:42.269Z,10.96
2019-03-19T11:03:14.328Z,11.37
2019-03-19T11:05:46.928Z,11.02
2019-03-19T11:08:36.606Z,10.66
2019-03-19T11:11:09.131Z,10.40
2019-03-19T11:13:59.425Z,10.58
2019-03-19T11:16:30.380Z,10.90
2019-03-19T11:19:01.019Z,10.92
2019-03-19T11:21:50.676Z,10.89
2019-03-19T11:24:40.490Z,11.12
2019-03-19T11:27:35.456Z,11.34
2019-03-19T11:30:26.872Z,11.61
2019-03-19T11:33:16.474Z,11.49
2019-03-19T11:36:06.186Z,12.01
2019-03-19T11:38:55.650Z,12.08
2019-03-19T11:41:37.607Z,12.07
2019-03-19T11:44:19.684Z,12.00
2019-03-19T11:47:01.636Z,12.06
2019-03-19T11:49:44.766Z,11.29
2019-03-19T11:52:15.539Z,11.31
2019-03-19T11:54:46.268Z,11.04
2019-03-19T11:57:36.038Z,10.11
2019-03-19T12:00:11.548Z,9.68
2019-03-19T12:03:12.375Z,9.68
2019-03-19T12:05:52.589Z,9.81
2019-03-19T12:08:42.015Z,9.40
2019-03-19T12:11:31.500Z,9.70
2019-03-19T12:14:21.302Z,9.41
2019-03-19T12:16:51.997Z,9.76
2019-03-19T12:19:41.455Z,9.59
2019-03-19T12:22:31.223Z,9.70
2019-03-19T12:25:20.777Z,9.82
2019-03-19T12:28:39.262Z,10.26
2019-03-19T12:31:20.266Z,10.57
2019-03-19T12:34:09.911Z,9.86
2019-03-19T12:36:59.727Z,10.67
2019-03-19T12:39:50.413Z,10.25
2019-03-19T12:42:32.352Z,10.35
2019-03-19T12:45:14.663Z,10.55
2019-03-19T12:47:56.996Z,10.52
2019-03-19T12:50:44.881Z,10.49
2019-03-19T12:53:26.670Z,10.51
2019-03-19T12:56:08.230Z,10.42
2019-03-19T12:58:49.797Z,10.18
2019-03-19T13:01:32.728Z,10.99
2019-03-19T13:04:14.602Z,10.77
2019-03-19T13:07:04.793Z,11.27
2019-03-19T13:09:55.025Z,11.33
2019-03-19T13:12:44.791Z,11.21
2019-03-19T13:15:34.421Z,11.55
2019-03-19T13:18:23.869Z,11.82
2019-03-19T13:21:13.751Z,11.40
2019-03-19T13:24:03.221Z,11.20
2019-03-19T13:26:35.211Z,11.39
2019-03-19T13:29:24.700Z,11.17
2019-03-19T13:31:55.262Z,11.08
2019-03-19T13:34:26.099Z,10.78
2019-03-19T13:37:16.463Z,10.70
2019-03-19T13:40:06.101Z,10.62
2019-03-19T13:42:56.682Z,11.76
2019-03-19T13:45:46.446Z,13.20
2019-03-19T13:48:17.012Z,12.87
2019-03-19T13:51:06.653Z,11.81
2019-03-19T13:53:48.702Z,11.09
2019-03-19T13:56:30.924Z,10.81
2019-03-19T13:59:13.290Z,10.59
2019-03-19T14:01:55.281Z,10.50
2019-03-19T14:04:32.773Z,10.50
2019-03-19T14:07:03.794Z,11.18
2019-03-19T14:09:34.409Z,11.84
2019-03-19T14:12:05.185Z,12.54
2019-03-19T14:14:54.803Z,13.46
2019-03-19T14:17:27.387Z,15.16
2019-03-19T14:20:18.927Z,17.42
2019-03-19T14:22:49.521Z,19.38
2019-03-19T14:25:39.089Z,21.20
2019-03-19T14:28:28.614Z,20.57
2019-03-19T14:31:18.219Z,18.33
2019-03-19T14:34:08.174Z,15.93
2019-03-19T14:36:57.787Z,13.26
2019-03-19T14:39:47.273Z,15.82
2019-03-19T14:42:19.640Z,16.10
2019-03-19T14:45:12.572Z,14.44
2019-03-19T14:48:02.297Z,13.46
2019-03-19T14:50:52.864Z,15.16
2019-03-19T14:53:42.430Z,16.88
2019-03-19T14:56:32.119Z,15.99
2019-03-19T14:59:14.437Z,14.37
2019-03-19T15:01:56.211Z,13.12
2019-03-19T15:04:26.932Z,11.97
2019-03-19T15:07:16.418Z,11.68
2019-03-19T15:10:06.882Z,11.67
2019-03-19T15:13:15.485Z,11.32
2019-03-19T15:16:04.967Z,11.19
2019-03-19T15:18:55.413Z,15.16
2019-03-19T15:21:35.792Z,18.01
2019-03-19T15:24:25.420Z,15.94
2019-03-19T15:27:15.407Z,15.76
2019-03-19T15:30:05.417Z,17.49
2019-03-19T15:32:55.258Z,18.53
2019-03-19T15:35:44.899Z,19.34
2019-03-19T15:38:34.375Z,18.06
2019-03-19T15:41:24.661Z,16.73
2019-03-19T15:44:15.878Z,16.68
2019-03-19T15:47:06.197Z,17.51
2019-03-19T15:49:38.454Z,18.86
2019-03-19T15:52:29.613Z,19.10
2019-03-19T15:55:00.343Z,19.16
2019-03-19T15:57:51.070Z,20.02
2019-03-19T16:00:40.652Z,20.71
2019-03-19T16:03:12.359Z,20.23
2019-03-19T16:06:01.990Z,19.22
2019-03-19T16:08:52.825Z,18.42
2019-03-19T16:11:43.456Z,18.01
2019-03-19T16:14:14.399Z,16.65
2019-03-19T16:16:44.965Z,16.21
2019-03-19T16:19:37.416Z,16.33
2019-03-19T16:22:27.039Z,15.45
2019-03-19T16:25:16.500Z,15.16
2019-03-19T16:30:43.332Z,13.73
2019-03-19T16:33:13.885Z,12.29
2019-03-19T16:36:03.499Z,11.52
2019-03-19T16:38:34.044Z,10.92
2019-03-19T16:41:04.725Z,10.65
2019-03-19T16:43:46.515Z,10.07
2019-03-19T16:49:11.765Z,9.58
2019-03-19T16:51:54.673Z,9.47
2019-03-19T16:54:25.284Z,9.29
2019-03-19T16:57:14.776Z,9.19
2019-03-19T17:00:05.151Z,9.11
2019-03-19T17:02:36.139Z,8.87
2019-03-19T17:05:07.806Z,8.88
2019-03-19T17:07:57.343Z,8.65
2019-03-19T17:10:28.151Z,8.55
2019-03-19T17:12:59.058Z,8.43
2019-03-19T17:15:29.808Z,8.40
2019-03-19T17:18:19.283Z,8.31
2019-03-19T17:20:50.370Z,8.10
2019-03-19T17:23:21.149Z,7.93
2019-03-19T17:25:52.964Z,7.77
2019-03-19T17:28:23.553Z,7.77
2019-03-19T17:31:13.539Z,7.64
2019-03-19T17:33:44.191Z,7.62
2019-03-19T17:36:15.509Z,7.58
2019-03-19T17:41:42.423Z,7.49
2019-03-19T17:47:04.473Z,7.51
2019-03-19T17:50:49.147Z,7.30
2019-03-19T17:57:06.825Z,6.98
2019-03-19T17:59:37.381Z,6.89
2019-03-19T18:02:10.678Z,6.76
2019-03-19T18:04:41.647Z,6.66
2019-03-19T18:07:12.607Z,6.50
2019-03-19T18:12:22.502Z,6.18
2019-03-19T18:14:53.953Z,6.08
2019-03-19T18:17:44.687Z,6.03
2019-03-19T18:20:15.774Z,5.99
2019-03-19T18:23:05.416Z,5.94
2019-03-19T18:25:36.024Z,5.75
2019-03-19T18:28:07.889Z,5.53
2019-03-19T18:30:57.488Z,5.52
2019-03-19T18:33:28.033Z,5.33
2019-03-19T18:36:00.527Z,5.30
2019-03-19T18:38:50.020Z,5.17
2019-03-19T18:41:39.958Z,5.14
2019-03-19T18:44:10.481Z,5.07
2019-03-19T18:46:51.504Z,4.93
2019-03-19T18:52:08.692Z,4.85
2019-03-19T18:54:39.510Z,4.85
2019-03-19T18:57:10.714Z,4.69
2019-03-19T18:59:42.602Z,4.64
2019-03-19T19:02:32.227Z,4.55
2019-03-19T19:05:02.758Z,4.35
2019-03-19T19:07:34.773Z,4.42
2019-03-19T19:10:24.351Z,4.31
2019-03-19T19:12:54.979Z,4.18
2019-03-19T19:15:44.568Z,4.20
2019-03-19T19:18:15.420Z,4.09
2019-03-19T19:21:23.730Z,3.90
2019-03-19T19:24:13.235Z,3.85
2019-03-19T19:27:03.091Z,3.80
2019-03-19T19:29:52.632Z,3.70
2019-03-19T19:32:42.225Z,3.80
2019-03-19T19:35:31.684Z,3.66
2019-03-19T19:38:21.379Z,3.59
2019-03-19T19:40:51.973Z,3.54
2019-03-19T19:43:41.899Z,3.39
2019-03-19T19:46:31.486Z,3.38
2019-03-19T19:49:13.207Z,3.34
2019-03-19T19:51:44.049Z,2.33
2019-03-19T19:54:14.608Z,3.20
2019-03-19T19:56:45.215Z,3.13
2019-03-19T19:59:34.681Z,3.01
2019-03-19T20:02:25.414Z,2.97
2019-03-19T20:05:15.710Z,2.96
2019-03-19T20:08:05.249Z,2.91
2019-03-19T20:10:54.704Z,2.77
2019-03-19T20:13:44.275Z,2.75
2019-03-19T20:16:20.811Z,2.67
2019-03-19T20:19:10.322Z,2.58
2019-03-19T20:21:41.545Z,2.58
2019-03-19T20:24:12.453Z,2.56
2019-03-19T20:26:43.243Z,2.49
2019-03-19T20:29:52.970Z,2.43
2019-03-19T20:35:20.882Z,2.41
2019-03-19T20:38:10.725Z,2.39
2019-03-19T20:40:41.774Z,2.42
2019-03-19T20:43:31.409Z,2.33
2019-03-19T20:46:06.954Z,2.39
2019-03-19T20:48:48.581Z,2.20
2019-03-19T20:51:27.107Z,2.15
2019-03-19T20:54:17.780Z,2.01
2019-03-19T20:56:52.218Z,1.95
2019-03-19T20:59:41.743Z,1.87
2019-03-19T21:02:12.243Z,1.81
2019-03-19T21:04:45.004Z,1.74
2019-03-19T21:07:15.901Z,1.66
2019-03-19T21:09:46.437Z,1.66
2019-03-19T21:12:17.161Z,1.66
2019-03-19T21:15:07.433Z,1.66
2019-03-19T21:17:57.183Z,1.10
2019-03-19T21:20:46.928Z,1.73
2019-03-19T21:23:17.907Z,1.64
2019-03-19T21:26:07.603Z,1.61
2019-03-19T21:28:57.115Z,1.58
2019-03-19T21:31:46.710Z,1.61
2019-03-19T21:34:17.642Z,1.45
2019-03-19T21:36:48.311Z,1.37
2019-03-19T21:39:37.994Z,1.37
2019-03-19T21:42:28.227Z,1.34
2019-03-19T21:44:59.033Z,1.32
2019-03-19T21:47:48.565Z,1.24
2019-03-19T21:50:38.454Z,1.24
2019-03-19T21:53:09.104Z,1.17
2019-03-19T21:55:58.690Z,1.16
2019-03-19T21:58:48.171Z,1.09
2019-03-19T22:01:18.790Z,1.05
2019-03-19T22:04:03.197Z,1.08
2019-03-19T22:06:44.962Z,1.00
2019-03-19T22:09:15.645Z,1.01
2019-03-19T22:12:05.309Z,0.96
2019-03-19T22:14:35.910Z,0.93
2019-03-19T22:17:06.617Z,0.88
2019-03-19T22:19:37.484Z,0.82
2019-03-19T22:22:09.050Z,0.93
2019-03-19T22:28:09.938Z,0.95
2019-03-19T22:30:41.102Z,0.78
2019-03-19T22:33:13.423Z,0.80
2019-03-19T22:36:06.956Z,0.78
2019-03-19T22:38:42.233Z,0.73
2019-03-19T22:41:33.131Z,0.69
2019-03-19T22:44:05.712Z,0.61
2019-03-19T22:46:55.364Z,0.62
2019-03-19T22:49:45.835Z,0.54
2019-03-19T22:52:36.885Z,0.52
2019-03-19T22:55:29.622Z,0.54
2019-03-19T22:58:27.900Z,0.40
2019-03-19T23:01:18.554Z,0.45
2019-03-19T23:04:09.834Z,0.39
2019-03-19T23:06:59.329Z,-0.15
2019-03-19T23:09:32.187Z,0.32
2019-03-19T23:12:22.057Z,0.37
2019-03-19T23:15:11.988Z,0.36
2019-03-19T23:18:01.552Z,0.32
2019-03-19T23:20:53.556Z,0.27
2019-03-19T23:23:26.085Z,0.25
2019-03-19T23:26:15.619Z,0.21
2019-03-19T23:29:05.619Z,0.20
2019-03-19T23:31:55.019Z,0.18
2019-03-19T23:34:37.904Z,0.17
2019-03-19T23:37:18.470Z,0.16
2019-03-19T23:40:07.983Z,0.07
2019-03-19T23:45:34.602Z,-0.40
2019-03-19T23:50:52.407Z,0.10
2019-03-19T23:53:23.681Z,0.18
2019-03-19T23:56:13.439Z,0.16
2019-03-19T23:58:46.079Z,0.11
